Columbus, Ohio
Traffic Map
Current Weather Conditions
Columbus, Ohio
Clear
Clear
20°
Feels Like: 20°
Wind Chill: 20° Ceiling: Unl
Heat Index: 20° Visibility: 10mi
Dew Point: 18° Wind: 0mph
Humidity: 90% Direction: ° ()
Pressure: 30.07in Gusts: 0mph
Raw Report DataKCMH 310851Z 00000KT 10SM CLR 20/18 A3007 RMK AO2 SLP176 T02000183 55003 $
Traffic Incident Summary
Active as of:
Severity:
Category:
InformationThere was an issue retrieving the traffic information for this location. Please try a different location or try again shortly.
Advertisements
Track Severe Weather on mobile